Time;durP1;ratioP1;P1;durP2;ratioP2;P2;SDS_P1;SDS_P2;PMS_P1;PMS_P2;Temp;Humidity;BMP_temperature;BMP_pressure;BME280_temperature;BME280_humidity;BME280_pressure;Samples;Min_cycle;Max_cycle;Signal;HPM_P1;HPM_P2
2021/03/16 00:01:05;;;;;;;20.25;4.28;;;7.20;84.70;;;;;;5111735;28;20020;-75
2021/03/16 00:03:32;;;;;;;25.27;6.43;;;7.20;85.00;;;;;;5113263;28;20456;-75
2021/03/16 00:05:57;;;;;;;25.00;3.67;;;7.20;85.30;;;;;;5112951;28;20053;-75
2021/03/16 00:08:23;;;;;;;24.83;5.13;;;7.20;85.20;;;;;;5111552;28;20134;-77
2021/03/16 00:10:50;;;;;;;24.85;3.28;;;7.20;85.90;;;;;;5113460;28;20024;-76
2021/03/16 00:13:15;;;;;;;20.13;4.03;;;7.20;85.70;;;;;;5111512;28;20011;-76
2021/03/16 00:15:41;;;;;;;13.73;3.15;;;7.20;85.50;;;;;;5111786;28;20076;-76
2021/03/16 00:18:13;;;;;;;24.08;3.70;;;7.10;86.40;;;;;;5113152;28;20066;-76
2021/03/16 00:20:39;;;;;;;23.27;3.90;;;7.20;87.00;;;;;;5112006;28;20012;-76
2021/03/16 00:23:06;;;;;;;24.75;3.85;;;7.20;86.10;;;;;;5111482;28;20023;-76
2021/03/16 00:25:32;;;;;;;21.70;3.15;;;7.20;85.50;;;;;;5112989;28;20550;-76
2021/03/16 00:27:58;;;;;;;19.08;3.92;;;7.20;85.60;;;;;;5112505;28;20095;-76
2021/03/16 00:30:24;;;;;;;24.90;3.58;;;7.10;85.20;;;;;;5111514;28;20015;-75
2021/03/16 00:32:49;;;;;;;24.77;4.78;;;7.10;85.30;;;;;;5112779;28;20042;-76
2021/03/16 00:35:15;;;;;;;24.65;3.22;;;7.10;85.20;;;;;;5110349;28;20015;-76
2021/03/16 00:37:41;;;;;;;15.93;3.97;;;7.10;85.20;;;;;;5111469;28;20034;-75
2021/03/16 00:40:07;;;;;;;24.60;3.97;;;7.10;86.30;;;;;;5112503;28;20024;-75
2021/03/16 00:42:32;;;;;;;20.20;3.20;;;7.10;85.60;;;;;;5113010;28;20402;-74
2021/03/16 00:44:58;;;;;;;22.50;3.83;;;7.10;85.70;;;;;;5112434;28;20026;-75
2021/03/16 00:47:24;;;;;;;25.38;4.10;;;7.00;85.70;;;;;;5111407;28;20440;-75
2021/03/16 00:49:49;;;;;;;31.65;4.32;;;7.00;85.50;;;;;;5111409;28;20343;-75
2021/03/16 00:52:15;;;;;;;25.02;3.95;;;7.00;86.20;;;;;;5112317;28;20066;-75
2021/03/16 00:54:40;;;;;;;24.75;3.83;;;7.00;85.60;;;;;;5112503;28;20455;-74
2021/03/16 00:57:06;;;;;;;17.65;3.50;;;6.90;85.70;;;;;;5111009;28;20161;-75
2021/03/16 00:59:31;;;;;;;27.00;4.63;;;7.00;86.00;;;;;;5112717;28;20100;-75
2021/03/16 01:01:57;;;;;;;25.60;3.65;;;6.90;85.60;;;;;;5112607;28;20345;-76
2021/03/16 01:04:22;;;;;;;18.67;3.20;;;6.90;85.90;;;;;;5112311;28;20042;-76
2021/03/16 01:06:48;;;;;;;28.20;3.05;;;6.90;87.20;;;;;;5110534;28;20012;-76
2021/03/16 01:09:14;;;;;;;24.60;4.47;;;6.90;86.00;;;;;;5112557;28;20031;-74
2021/03/16 01:11:39;;;;;;;21.25;3.40;;;6.90;85.90;;;;;;5111171;28;20345;-75
2021/03/16 01:14:06;;;;;;;26.25;3.92;;;6.90;85.90;;;;;;5112120;28;20471;-75
2021/03/16 01:16:32;;;;;;;21.27;4.07;;;7.00;85.80;;;;;;5112370;28;20031;-76
2021/03/16 01:18:57;;;;;;;19.33;3.38;;;7.00;85.70;;;;;;5111128;28;20015;-76
2021/03/16 01:21:23;;;;;;;23.08;3.28;;;7.00;84.90;;;;;;5112226;28;20027;-75
2021/03/16 01:23:49;;;;;;;14.32;4.13;;;7.00;84.00;;;;;;5111085;28;20460;-75
2021/03/16 01:26:14;;;;;;;19.67;3.13;;;7.00;85.90;;;;;;5110929;28;20371;-76
2021/03/16 01:28:40;;;;;;;18.73;3.45;;;7.00;83.90;;;;;;5111084;28;20460;-75
2021/03/16 01:31:05;;;;;;;21.52;2.88;;;7.00;83.60;;;;;;5112219;28;20023;-75
2021/03/16 01:33:31;;;;;;;16.40;3.15;;;7.00;83.10;;;;;;5111084;28;20026;-75
2021/03/16 01:35:57;;;;;;;23.38;3.60;;;7.00;82.60;;;;;;5110982;28;20020;-76
2021/03/16 01:38:22;;;;;;;36.38;7.22;;;7.00;82.30;;;;;;5112041;28;20051;-76
2021/03/16 01:40:48;;;;;;;19.92;3.78;;;7.00;82.80;;;;;;5111902;28;20015;-75
2021/03/16 01:43:23;;;;;;;18.23;3.38;;;7.10;83.00;;;;;;5110657;28;20031;-75
2021/03/16 01:45:50;;;;;;;21.88;4.63;;;7.10;82.80;;;;;;5111618;28;20043;-76
2021/03/16 01:48:26;;;;;;;16.80;3.45;;;7.10;82.80;;;;;;5115236;28;20371;-76
2021/03/16 01:50:52;;;;;;;31.83;3.72;;;7.00;82.70;;;;;;5114520;28;20012;-75
2021/03/16 01:53:18;;;;;;;21.90;3.00;;;7.00;81.70;;;;;;5114151;28;20019;-76
2021/03/16 01:55:45;;;;;;;17.40;3.05;;;7.00;81.70;;;;;;5114517;28;20030;-76
2021/03/16 01:58:10;;;;;;;18.48;2.35;;;7.10;82.60;;;;;;5114212;28;20016;-76
2021/03/16 02:00:44;;;;;;;17.00;2.90;;;7.10;81.50;;;;;;5114086;28;20023;-75
2021/03/16 02:03:10;;;;;;;17.45;2.58;;;7.10;82.60;;;;;;5114024;28;20528;-76
2021/03/16 02:05:38;;;;;;;16.40;2.92;;;7.00;81.80;;;;;;5114315;28;20119;-76
2021/03/16 02:08:22;;;;;;;17.38;3.47;;;7.10;81.40;;;;;;5115111;28;20471;-76
2021/03/16 02:11:03;;;;;;;17.98;3.47;;;7.00;81.30;;;;;;5115494;28;20035;-76
2021/03/16 02:13:36;;;;;;;14.32;2.25;;;7.00;81.80;;;;;;5115436;28;20095;-74
2021/03/16 02:16:09;;;;;;;19.35;2.83;;;7.00;81.30;;;;;;5113989;28;20027;-75
2021/03/16 02:18:40;;;;;;;20.17;3.70;;;7.00;81.30;;;;;;5115572;28;20098;-76
2021/03/16 02:21:10;;;;;;;16.67;3.40;;;7.00;81.20;;;;;;5113693;28;20056;-76
2021/03/16 02:24:08;;;;;;;15.90;2.38;;;7.00;81.30;;;;;;5115313;28;20020;-77
2021/03/16 02:26:49;;;;;;;14.40;2.40;;;7.00;81.60;;;;;;5115350;28;20049;-75
2021/03/16 02:29:32;;;;;;;23.65;4.32;;;7.00;81.70;;;;;;5113668;28;20471;-76
2021/03/16 02:32:03;;;;;;;14.50;3.13;;;7.00;81.50;;;;;;5113760;28;20046;-76
2021/03/16 02:34:31;;;;;;;13.85;2.15;;;7.00;81.90;;;;;;5114783;28;20102;-75
2021/03/16 02:36:58;;;;;;;14.27;2.67;;;7.00;82.30;;;;;;5113643;28;20032;-75
2021/03/16 02:39:26;;;;;;;18.73;2.50;;;7.00;81.80;;;;;;5113352;28;20428;-75
2021/03/16 02:41:53;;;;;;;20.45;3.38;;;7.00;81.50;;;;;;5113564;28;20016;-75
2021/03/16 02:44:19;;;;;;;11.68;2.20;;;7.00;81.00;;;;;;5114605;28;20027;-75
2021/03/16 02:46:48;;;;;;;13.43;2.72;;;7.00;81.10;;;;;;5114752;28;20467;-75
2021/03/16 02:49:15;;;;;;;17.88;2.75;;;7.00;80.70;;;;;;5113141;28;20020;-75
2021/03/16 02:51:41;;;;;;;16.42;2.47;;;7.00;81.30;;;;;;5114734;28;20022;-75
2021/03/16 02:54:09;;;;;;;19.17;2.55;;;7.00;81.60;;;;;;5113001;28;20077;-76
2021/03/16 02:56:36;;;;;;;18.23;2.70;;;7.10;81.00;;;;;;5114647;28;20062;-76
2021/03/16 02:59:04;;;;;;;12.00;2.65;;;7.00;81.90;;;;;;5112385;28;20039;-76
2021/03/16 03:01:34;;;;;;;25.40;3.20;;;7.00;81.10;;;;;;5112838;28;20165;-76
2021/03/16 03:04:01;;;;;;;9.93;2.00;;;7.00;81.90;;;;;;5113067;28;20023;-75
2021/03/16 03:06:27;;;;;;;17.13;3.05;;;7.00;81.70;;;;;;5112768;28;20028;-75
2021/03/16 03:08:53;;;;;;;21.45;4.45;;;7.00;81.20;;;;;;5114510;28;20420;-75
2021/03/16 03:11:19;;;;;;;17.15;2.75;;;7.00;81.10;;;;;;5114090;28;20068;-75
2021/03/16 03:13:44;;;;;;;15.50;2.28;;;7.00;81.30;;;;;;5112887;28;20054;-75
2021/03/16 03:16:10;;;;;;;15.05;2.35;;;7.00;81.40;;;;;;5112720;28;20371;-75
2021/03/16 03:18:36;;;;;;;16.77;2.25;;;7.00;82.00;;;;;;5112891;28;20356;-74
2021/03/16 03:21:21;;;;;;;18.50;2.72;;;7.00;82.10;;;;;;5113069;28;20426;-75
2021/03/16 03:23:50;;;;;;;15.55;2.60;;;7.00;82.00;;;;;;5114151;28;20034;-75
2021/03/16 03:26:20;;;;;;;18.90;2.43;;;7.00;81.50;;;;;;5112775;28;20110;-75
2021/03/16 03:28:47;;;;;;;15.82;2.58;;;7.00;81.20;;;;;;5112697;28;20023;-75
2021/03/16 03:31:14;;;;;;;24.65;3.60;;;7.00;81.50;;;;;;5113900;28;20026;-76
2021/03/16 03:33:42;;;;;;;11.30;2.47;;;7.00;82.00;;;;;;5112590;28;20085;-75
2021/03/16 03:36:09;;;;;;;16.50;2.60;;;7.00;81.90;;;;;;5112309;28;20126;-75
2021/03/16 03:38:35;;;;;;;20.92;4.05;;;7.00;82.10;;;;;;5112421;28;20015;-76
2021/03/16 03:41:03;;;;;;;15.18;3.08;;;7.00;82.00;;;;;;5112489;28;20022;-75
2021/03/16 03:43:31;;;;;;;15.80;2.80;;;7.00;81.70;;;;;;5113698;28;20024;-75
2021/03/16 03:45:58;;;;;;;11.05;2.80;;;7.00;82.10;;;;;;5113568;28;20102;-76
2021/03/16 03:48:27;;;;;;;13.35;2.20;;;7.00;82.00;;;;;;5113254;28;20016;-76
2021/03/16 03:50:54;;;;;;;15.90;2.42;;;7.00;81.70;;;;;;5112153;28;20024;-75
2021/03/16 03:53:21;;;;;;;13.43;2.60;;;6.90;81.20;;;;;;5113152;28;20462;-75
2021/03/16 03:55:47;;;;;;;12.05;2.45;;;6.90;80.80;;;;;;5112135;28;20030;-75
2021/03/16 03:58:15;;;;;;;21.52;3.50;;;6.90;81.10;;;;;;5111719;28;20022;-75
2021/03/16 04:00:41;;;;;;;18.67;2.78;;;6.90;81.10;;;;;;5111981;28;20027;-75
2021/03/16 04:03:07;;;;;;;17.65;2.55;;;6.90;81.60;;;;;;5113542;28;20024;-76
2021/03/16 04:05:33;;;;;;;24.55;3.08;;;7.00;81.50;;;;;;5111723;28;20340;-75
2021/03/16 04:08:01;;;;;;;14.15;2.28;;;6.90;82.10;;;;;;5113171;28;20047;-75
2021/03/16 04:10:27;;;;;;;17.92;3.13;;;6.90;81.90;;;;;;5112809;28;20051;-74
2021/03/16 04:12:53;;;;;;;17.98;3.92;;;7.00;82.00;;;;;;5111947;28;20452;-75
2021/03/16 04:15:19;;;;;;;19.23;2.78;;;7.00;82.20;;;;;;5112984;28;20020;-75
2021/03/16 04:17:46;;;;;;;14.32;2.55;;;7.00;82.40;;;;;;5113086;28;20022;-74
2021/03/16 04:20:13;;;;;;;15.15;2.85;;;7.00;82.70;;;;;;5112770;28;20364;-76
2021/03/16 04:22:41;;;;;;;16.77;3.50;;;6.90;82.60;;;;;;5112847;28;20362;-75
2021/03/16 04:25:08;;;;;;;22.05;2.50;;;6.90;82.60;;;;;;5111670;28;20023;-75
2021/03/16 04:27:34;;;;;;;19.88;2.55;;;6.90;82.80;;;;;;5111338;28;20061;-75
2021/03/16 04:30:00;;;;;;;17.33;2.30;;;6.90;82.90;;;;;;5111355;28;20012;-76
2021/03/16 04:32:25;;;;;;;17.65;2.33;;;6.90;83.50;;;;;;5111252;28;20023;-76
2021/03/16 04:34:52;;;;;;;12.48;2.22;;;6.90;83.50;;;;;;5111038;28;20016;-76
2021/03/16 04:37:18;;;;;;;18.10;3.10;;;6.80;83.80;;;;;;5112385;28;20106;-76
2021/03/16 04:39:43;;;;;;;18.40;2.63;;;6.90;84.10;;;;;;5111517;28;20115;-76
2021/03/16 04:42:09;;;;;;;24.65;3.22;;;6.80;84.40;;;;;;5112562;28;20030;-76
2021/03/16 04:44:35;;;;;;;25.00;2.60;;;6.80;84.70;;;;;;5111253;28;20440;-76
2021/03/16 04:47:01;;;;;;;22.92;3.05;;;6.80;85.10;;;;;;5111364;28;20012;-76
2021/03/16 04:49:26;;;;;;;21.65;3.70;;;6.70;85.20;;;;;;5112499;28;20068;-76
2021/03/16 04:51:52;;;;;;;25.48;4.68;;;6.70;85.50;;;;;;5111436;28;20020;-76
2021/03/16 04:54:17;;;;;;;16.65;2.88;;;6.80;85.60;;;;;;5111066;28;20478;-77
2021/03/16 04:56:43;;;;;;;23.20;4.97;;;6.80;85.70;;;;;;5112510;28;20028;-75
2021/03/16 04:59:08;;;;;;;23.15;2.88;;;6.80;85.70;;;;;;5111261;28;20018;-76
2021/03/16 05:01:35;;;;;;;26.15;3.70;;;6.80;85.70;;;;;;5111105;28;20019;-76
2021/03/16 05:04:00;;;;;;;22.58;3.90;;;6.80;85.80;;;;;;5111222;28;20028;-76
2021/03/16 05:06:26;;;;;;;28.65;4.20;;;6.80;85.90;;;;;;5111200;28;20531;-76
2021/03/16 05:08:52;;;;;;;22.40;3.47;;;6.80;85.70;;;;;;5110703;28;20085;-75
2021/03/16 05:11:17;;;;;;;18.45;2.85;;;6.80;85.90;;;;;;5110995;28;20069;-75
2021/03/16 05:13:44;;;;;;;17.67;3.83;;;6.80;86.10;;;;;;5112069;28;20020;-76
2021/03/16 05:16:09;;;;;;;16.13;2.85;;;6.80;86.20;;;;;;5112486;28;20080;-76
2021/03/16 05:18:35;;;;;;;21.58;3.20;;;6.80;85.50;;;;;;5110926;28;20008;-75
2021/03/16 05:21:01;;;;;;;19.13;3.55;;;6.80;86.00;;;;;;5112214;28;20513;-75
2021/03/16 05:23:26;;;;;;;21.00;3.50;;;6.80;85.40;;;;;;5115978;28;20024;-76
2021/03/16 05:25:52;;;;;;;21.70;3.60;;;6.80;85.40;;;;;;5116551;28;20064;-75
2021/03/16 05:28:18;;;;;;;21.42;3.28;;;6.80;85.50;;;;;;5114798;28;20351;-75
2021/03/16 05:30:43;;;;;;;16.33;3.85;;;6.80;85.30;;;;;;5116645;28;20031;-76
2021/03/16 05:33:09;;;;;;;13.00;2.50;;;6.80;85.60;;;;;;5116043;28;20027;-75
2021/03/16 05:35:34;;;;;;;16.33;3.97;;;6.80;85.70;;;;;;5115920;28;20503;-75
2021/03/16 05:38:00;;;;;;;16.77;3.42;;;6.80;85.90;;;;;;5115889;28;20031;-75
2021/03/16 05:40:29;;;;;;;23.55;3.85;;;6.80;87.00;;;;;;5115602;28;20413;-76
2021/03/16 05:42:56;;;;;;;20.15;3.00;;;6.80;86.00;;;;;;5114639;28;20517;-76
2021/03/16 05:45:22;;;;;;;25.65;3.97;;;6.80;86.80;;;;;;5114547;28;20028;-75
2021/03/16 05:47:48;;;;;;;27.15;4.78;;;6.70;86.50;;;;;;5114587;28;20076;-75
2021/03/16 05:50:16;;;;;;;21.15;4.03;;;6.70;86.60;;;;;;5115853;28;20044;-75
2021/03/16 05:52:42;;;;;;;24.20;3.05;;;6.70;86.80;;;;;;5114503;28;20358;-75
2021/03/16 05:55:08;;;;;;;25.30;4.00;;;6.70;87.20;;;;;;5114384;28;20447;-75
2021/03/16 05:57:34;;;;;;;21.13;3.72;;;6.70;87.40;;;;;;5115546;28;20016;-75
2021/03/16 06:00:00;;;;;;;22.00;3.60;;;6.80;87.50;;;;;;5114343;28;20505;-76
2021/03/16 06:02:25;;;;;;;21.45;4.15;;;6.70;87.50;;;;;;5113951;28;20480;-76
2021/03/16 06:04:51;;;;;;;21.20;3.22;;;6.80;87.60;;;;;;5115290;28;20217;-75
2021/03/16 06:07:17;;;;;;;28.58;3.95;;;6.80;87.70;;;;;;5113815;28;20120;-75
2021/03/16 06:09:44;;;;;;;25.42;4.57;;;6.80;87.70;;;;;;5114169;28;20367;-76
2021/03/16 06:12:10;;;;;;;26.10;8.40;;;6.80;87.60;;;;;;5115756;28;20027;-75
2021/03/16 06:14:37;;;;;;;20.75;4.90;;;6.80;87.50;;;;;;5115043;28;20528;-76
2021/03/16 06:17:04;;;;;;;23.80;6.75;;;6.90;87.50;;;;;;5115410;28;20050;-76
2021/03/16 06:19:33;;;;;;;23.50;3.70;;;6.90;87.80;;;;;;5115137;28;20012;-75
2021/03/16 06:22:06;;;;;;;19.65;4.72;;;7.00;87.40;;;;;;5113806;28;20079;-77
2021/03/16 06:24:37;;;;;;;25.10;4.25;;;7.10;87.10;;;;;;5113408;28;20019;-75
2021/03/16 06:27:03;;;;;;;26.50;3.75;;;7.10;86.90;;;;;;5114721;28;20019;-75
2021/03/16 06:29:40;;;;;;;25.05;5.15;;;7.10;86.60;;;;;;5113471;28;20475;-75
2021/03/16 06:32:12;;;;;;;21.73;3.65;;;7.20;86.40;;;;;;5114142;28;20019;-75
2021/03/16 06:34:38;;;;;;;21.10;5.38;;;7.20;86.40;;;;;;5112943;28;20038;-75
2021/03/16 06:37:04;;;;;;;19.35;3.47;;;7.20;86.40;;;;;;5114642;28;20020;-76
2021/03/16 06:39:30;;;;;;;23.17;3.75;;;7.20;86.20;;;;;;5113260;28;20018;-75
2021/03/16 06:41:55;;;;;;;30.55;4.93;;;7.30;86.30;;;;;;5113302;28;20015;-75
2021/03/16 06:44:22;;;;;;;21.58;4.20;;;7.30;86.10;;;;;;5113279;28;20015;-75
2021/03/16 06:46:53;;;;;;;25.00;3.70;;;7.40;86.10;;;;;;5114581;28;20368;-77
2021/03/16 06:49:21;;;;;;;16.05;4.07;;;7.40;85.80;;;;;;5114239;28;20023;-76
2021/03/16 06:51:47;;;;;;;24.73;3.45;;;7.40;85.80;;;;;;5113228;28;20022;-75
2021/03/16 06:54:15;;;;;;;19.77;3.63;;;7.40;85.70;;;;;;5112977;28;20015;-75
2021/03/16 06:56:56;;;;;;;17.90;2.53;;;7.40;85.60;;;;;;5112963;28;20363;-75
2021/03/16 06:59:23;;;;;;;15.55;2.75;;;7.40;85.40;;;;;;5114300;28;20122;-75
2021/03/16 07:01:49;;;;;;;21.20;3.40;;;7.40;85.90;;;;;;5112774;28;20098;-76
2021/03/16 07:04:16;;;;;;;25.65;3.58;;;7.40;85.70;;;;;;5114181;28;20102;-76
2021/03/16 07:06:42;;;;;;;19.08;3.47;;;7.40;85.30;;;;;;5113671;28;20020;-75
2021/03/16 07:09:11;;;;;;;20.73;3.55;;;7.40;85.40;;;;;;5112838;28;20114;-75
2021/03/16 07:11:40;;;;;;;27.00;5.65;;;7.40;86.30;;;;;;5113943;28;20019;-75
2021/03/16 07:14:07;;;;;;;21.88;3.70;;;7.40;85.60;;;;;;5114117;28;20020;-75
2021/03/16 07:16:37;;;;;;;15.18;3.55;;;7.40;85.20;;;;;;5112720;28;20019;-76
2021/03/16 07:19:05;;;;;;;24.98;3.25;;;7.50;85.10;;;;;;5112740;28;20016;-75
2021/03/16 07:21:38;;;;;;;22.85;3.28;;;7.50;85.30;;;;;;5113766;28;20019;-76
2021/03/16 07:24:09;;;;;;;21.77;2.85;;;7.50;85.10;;;;;;5114088;28;20026;-76
2021/03/16 07:26:35;;;;;;;15.38;2.65;;;7.50;85.50;;;;;;5112440;28;20428;-75
2021/03/16 07:29:04;;;;;;;15.57;2.22;;;7.70;85.00;;;;;;5112236;28;20107;-75
2021/03/16 07:31:32;;;;;;;21.95;3.47;;;7.80;85.10;;;;;;5112376;28;20527;-75
2021/03/16 07:34:02;;;;;;;60.53;23.42;;;7.90;83.70;;;;;;5113643;28;20027;-75
2021/03/16 07:36:27;;;;;;;26.00;6.88;;;8.00;83.30;;;;;;5112279;28;20026;-75
2021/03/16 07:38:54;;;;;;;23.40;3.53;;;8.00;82.50;;;;;;5112463;28;20011;-75
2021/03/16 07:41:20;;;;;;;23.05;4.78;;;8.10;82.70;;;;;;5113426;28;20552;-75
2021/03/16 07:43:45;;;;;;;20.55;3.30;;;8.10;82.60;;;;;;5111862;28;20023;-75
2021/03/16 07:46:17;;;;;;;11.80;2.97;;;8.10;82.60;;;;;;5113504;28;20048;-75
2021/03/16 07:48:53;;;;;;;22.92;3.55;;;8.10;82.20;;;;;;5091892;28;20032;-74
2021/03/16 07:51:20;;;;;;;29.70;3.80;;;8.20;81.90;;;;;;5105481;28;20008;-74
2021/03/16 07:53:56;;;;;;;17.67;3.75;;;8.20;81.00;;;;;;5096675;28;20326;-74
2021/03/16 07:56:26;;;;;;;25.10;4.72;;;8.20;80.70;;;;;;5104994;28;20034;-74
2021/03/16 07:58:52;;;;;;;17.13;3.13;;;8.20;81.00;;;;;;5110843;28;20028;-74
2021/03/16 08:01:18;;;;;;;21.33;3.15;;;8.30;80.80;;;;;;5097953;28;20019;-74
2021/03/16 08:03:44;;;;;;;19.73;3.53;;;8.30;81.00;;;;;;5112651;28;20098;-74
2021/03/16 08:06:26;;;;;;;20.02;4.50;;;8.30;80.30;;;;;;5112011;28;20108;-74
2021/03/16 08:08:52;;;;;;;14.10;3.22;;;8.40;79.80;;;;;;5111342;28;20387;-74
2021/03/16 08:11:19;;;;;;;10.32;2.25;;;8.50;80.70;;;;;;5108678;28;20098;-74
2021/03/16 08:13:58;;;;;;;18.08;2.65;;;8.50;79.80;;;;;;5108309;28;20380;-74
2021/03/16 08:16:54;;;;;;;17.35;2.53;;;8.50;80.50;;;;;;5107394;28;20020;-74
2021/03/16 08:19:23;;;;;;;13.80;3.17;;;8.60;80.70;;;;;;5087287;28;20588;-74
2021/03/16 08:21:59;;;;;;;15.60;3.50;;;8.60;79.30;;;;;;5098905;28;20112;-75
2021/03/16 08:25:06;;;;;;;19.15;3.33;;;8.70;78.50;;;;;;5097630;28;20057;-75
2021/03/16 08:27:36;;;;;;;13.05;2.30;;;8.80;79.10;;;;;;5103208;28;20460;-74
2021/03/16 08:30:07;;;;;;;11.23;2.92;;;8.90;78.10;;;;;;5111380;28;20020;-74
2021/03/16 08:32:34;;;;;;;13.88;2.50;;;8.90;78.50;;;;;;5111444;28;20023;-73
2021/03/16 08:34:59;;;;;;;26.60;3.42;;;8.90;80.60;;;;;;5096821;28;20031;-76
2021/03/16 08:37:33;;;;;;;15.73;2.88;;;8.90;77.40;;;;;;5092298;28;20027;-76
2021/03/16 08:40:00;;;;;;;19.83;5.93;;;8.90;76.80;;;;;;5092229;28;20008;-75
2021/03/16 08:42:28;;;;;;;42.20;15.45;;;8.90;75.80;;;;;;5091923;28;20095;-74
2021/03/16 08:44:55;;;;;;;15.98;3.65;;;9.00;76.60;;;;;;5096115;28;20023;-74
2021/03/16 08:47:23;;;;;;;34.35;11.80;;;8.90;75.10;;;;;;5110859;28;20016;-75
2021/03/16 08:49:50;;;;;;;24.55;7.65;;;8.80;76.60;;;;;;5111159;28;20024;-74
2021/03/16 08:52:24;;;;;;;50.88;17.58;;;8.80;79.70;;;;;;5111228;28;20012;-74
2021/03/16 08:54:51;;;;;;;16.52;3.63;;;8.90;78.00;;;;;;5111096;28;20015;-75
2021/03/16 08:57:23;;;;;;;25.85;7.10;;;9.00;76.90;;;;;;5114762;28;20065;-75
2021/03/16 08:59:51;;;;;;;19.77;6.00;;;9.10;75.50;;;;;;5115324;28;20076;-74
2021/03/16 09:02:28;;;;;;;14.23;2.50;;;9.10;76.90;;;;;;5117092;28;20015;-74
2021/03/16 09:04:55;;;;;;;20.42;3.78;;;9.20;74.90;;;;;;5101975;28;20066;-74
2021/03/16 09:07:26;;;;;;;34.22;10.90;;;9.30;74.50;;;;;;5094466;28;20044;-76
2021/03/16 09:10:02;;;;;;;13.80;4.13;;;9.50;74.30;;;;;;5096085;28;20016;-75
2021/03/16 09:12:29;;;;;;;16.58;3.28;;;9.70;77.80;;;;;;5094467;28;20392;-75
2021/03/16 09:15:27;;;;;;;14.15;2.65;;;9.90;77.00;;;;;;5094766;28;20023;-75
2021/03/16 09:17:58;;;;;;;14.80;2.97;;;9.90;71.70;;;;;;5094801;28;20026;-74
2021/03/16 09:20:29;;;;;;;13.57;3.28;;;9.90;71.40;;;;;;5102254;28;20022;-75
2021/03/16 09:23:01;;;;;;;11.30;2.38;;;10.10;72.50;;;;;;5111186;28;20045;-74
2021/03/16 09:25:31;;;;;;;13.25;2.38;;;10.30;73.20;;;;;;5094359;28;20028;-74
2021/03/16 09:28:01;;;;;;;12.13;2.25;;;10.40;70.00;;;;;;5107900;28;20095;-75
2021/03/16 09:30:29;;;;;;;18.63;3.45;;;10.50;72.30;;;;;;5114579;28;20067;-75
2021/03/16 09:32:55;;;;;;;15.48;2.88;;;10.60;68.80;;;;;;5115014;28;20065;-74
2021/03/16 09:35:21;;;;;;;11.20;2.13;;;10.50;67.60;;;;;;5114603;28;20023;-75
2021/03/16 09:37:49;;;;;;;12.60;2.20;;;10.40;70.90;;;;;;5115850;28;20039;-75
2021/03/16 09:40:16;;;;;;;10.40;2.25;;;10.20;66.80;;;;;;5116072;28;20444;-75
2021/03/16 09:42:48;;;;;;;14.27;2.33;;;10.20;67.50;;;;;;5115522;28;20020;-75
2021/03/16 09:45:28;;;;;;;11.68;1.48;;;10.10;68.80;;;;;;5114295;28;20103;-76
2021/03/16 09:47:54;;;;;;;16.17;2.83;;;10.10;78.20;;;;;;5116156;28;20012;-76
2021/03/16 09:50:36;;;;;;;18.98;2.78;;;10.00;70.20;;;;;;5114312;28;20463;-75
2021/03/16 09:53:06;;;;;;;21.63;2.97;;;10.00;72.80;;;;;;5115890;28;20016;-75
2021/03/16 09:55:33;;;;;;;9.27;2.00;;;10.00;71.20;;;;;;5115407;28;20023;-78
2021/03/16 09:58:00;;;;;;;9.40;1.88;;;10.00;73.40;;;;;;5114407;28;20397;-76
2021/03/16 10:00:27;;;;;;;14.02;2.58;;;10.00;71.80;;;;;;5113770;28;20475;-75
2021/03/16 10:03:03;;;;;;;14.23;2.53;;;10.00;70.30;;;;;;5114264;28;20023;-76
2021/03/16 10:05:29;;;;;;;13.20;2.50;;;10.00;73.70;;;;;;5114125;28;20015;-76
2021/03/16 10:07:54;;;;;;;18.95;2.80;;;9.90;71.40;;;;;;5113015;28;20043;-77
2021/03/16 10:10:22;;;;;;;16.63;2.67;;;9.90;70.50;;;;;;5115186;28;20110;-76
2021/03/16 10:13:02;;;;;;;12.98;1.90;;;10.00;71.80;;;;;;5113869;28;20031;-75
2021/03/16 10:15:33;;;;;;;8.33;1.97;;;10.00;70.00;;;;;;5113754;28;20030;-75
2021/03/16 10:18:01;;;;;;;13.15;2.97;;;10.00;69.90;;;;;;5114019;28;20023;-75
2021/03/16 10:20:33;;;;;;;11.95;2.50;;;10.10;79.70;;;;;;5113528;28;20019;-75
2021/03/16 10:23:01;;;;;;;17.35;2.70;;;10.20;70.90;;;;;;5110236;28;20053;-75
2021/03/16 10:25:32;;;;;;;14.73;3.05;;;10.30;68.40;;;;;;5113829;28;20034;-74
2021/03/16 10:28:03;;;;;;;11.27;2.53;;;10.40;72.70;;;;;;5115383;28;20509;-76
2021/03/16 10:30:42;;;;;;;16.23;4.07;;;10.40;69.00;;;;;;5114403;28;20095;-75
2021/03/16 10:33:09;;;;;;;11.02;2.42;;;10.50;74.50;;;;;;5113716;28;20019;-74
2021/03/16 10:35:37;;;;;;;13.15;2.40;;;10.50;74.40;;;;;;5114127;28;20019;-75
2021/03/16 10:38:06;;;;;;;10.85;1.55;;;10.60;69.90;;;;;;5114249;28;20467;-74
2021/03/16 10:40:32;;;;;;;14.63;2.47;;;10.60;65.30;;;;;;5114116;28;20072;-74
2021/03/16 10:42:58;;;;;;;11.13;1.90;;;10.70;65.60;;;;;;5111186;28;20513;-71
2021/03/16 10:45:24;;;;;;;20.42;3.42;;;10.70;66.10;;;;;;5100928;28;20024;-72
2021/03/16 10:47:50;;;;;;;9.88;2.30;;;10.90;74.70;;;;;;5114463;28;20065;-73
2021/03/16 10:50:16;;;;;;;7.25;1.30;;;11.10;70.90;;;;;;5114041;28;20019;-73
2021/03/16 10:52:42;;;;;;;13.85;3.58;;;11.30;67.00;;;;;;5099481;28;20024;-73
2021/03/16 10:55:08;;;;;;;13.30;2.03;;;11.50;73.90;;;;;;5100584;28;20030;-72
2021/03/16 10:57:34;;;;;;;12.80;2.22;;;11.50;66.20;;;;;;5096421;28;20020;-73
2021/03/16 11:00:01;;;;;;;9.75;2.22;;;11.50;67.60;;;;;;5106666;28;20073;-72
2021/03/16 11:02:26;;;;;;;15.90;2.70;;;11.50;63.40;;;;;;5114008;28;20460;-72
2021/03/16 11:04:52;;;;;;;9.85;1.80;;;11.40;62.60;;;;;;5114107;28;20022;-72
2021/03/16 11:07:18;;;;;;;12.48;1.63;;;11.40;66.40;;;;;;5113860;28;20035;-71
2021/03/16 11:09:43;;;;;;;16.73;1.70;;;11.30;62.00;;;;;;5113972;28;20415;-72
2021/03/16 11:12:09;;;;;;;6.32;1.42;;;11.40;63.00;;;;;;5112975;28;20356;-72
2021/03/16 11:14:35;;;;;;;9.02;2.13;;;11.30;61.10;;;;;;5113420;28;20065;-72
2021/03/16 11:17:00;;;;;;;14.60;2.20;;;11.40;60.50;;;;;;5114030;28;20024;-73
2021/03/16 11:19:26;;;;;;;10.52;1.90;;;11.40;58.90;;;;;;5112038;28;20019;-73
2021/03/16 11:21:51;;;;;;;9.05;1.98;;;11.50;59.30;;;;;;5113837;28;20077;-73
2021/03/16 11:24:18;;;;;;;15.35;3.45;;;11.50;60.00;;;;;;5113861;28;20020;-73
2021/03/16 11:26:44;;;;;;;9.25;1.50;;;11.60;63.80;;;;;;5113072;28;20509;-73
2021/03/16 11:29:09;;;;;;;15.07;2.50;;;11.50;60.80;;;;;;5093398;28;20024;-73
2021/03/16 11:31:35;;;;;;;11.63;1.45;;;11.50;60.20;;;;;;5091885;28;20020;-72
2021/03/16 11:34:01;;;;;;;8.90;1.60;;;11.50;59.80;;;;;;5093353;28;20027;-72
2021/03/16 11:36:26;;;;;;;8.63;1.63;;;11.50;63.10;;;;;;5093196;28;20020;-73
2021/03/16 11:38:52;;;;;;;13.13;2.00;;;11.60;65.70;;;;;;5093062;28;20027;-73
2021/03/16 11:41:17;;;;;;;10.88;1.70;;;11.60;59.20;;;;;;5091760;28;20023;-74
2021/03/16 11:43:43;;;;;;;11.15;2.75;;;11.60;58.80;;;;;;5091753;28;20039;-74
2021/03/16 11:46:09;;;;;;;33.83;14.20;;;11.60;59.20;;;;;;5093165;28;20031;-73
2021/03/16 11:48:34;;;;;;;20.25;3.78;;;11.90;59.70;;;;;;5091336;28;20012;-73
2021/03/16 11:51:00;;;;;;;13.10;1.90;;;12.00;58.60;;;;;;5091729;28;20016;-73
2021/03/16 11:53:25;;;;;;;12.52;3.03;;;12.00;58.40;;;;;;5091741;28;20016;-73
2021/03/16 11:55:51;;;;;;;11.18;2.70;;;11.80;59.70;;;;;;5092749;28;20375;-73
2021/03/16 11:58:17;;;;;;;6.95;1.27;;;11.60;59.30;;;;;;5092961;28;20071;-74
2021/03/16 12:00:43;;;;;;;13.40;2.40;;;11.40;65.80;;;;;;5091216;28;20024;-73
2021/03/16 12:03:10;;;;;;;15.25;3.05;;;11.40;60.70;;;;;;5091590;28;20463;-72
2021/03/16 12:05:35;;;;;;;9.07;1.85;;;11.40;64.60;;;;;;5091330;28;20341;-72
2021/03/16 12:08:01;;;;;;;14.57;1.63;;;11.40;61.80;;;;;;5091215;28;20031;-73
2021/03/16 12:10:27;;;;;;;12.45;2.15;;;11.40;61.90;;;;;;5092838;28;20081;-74
2021/03/16 12:12:52;;;;;;;17.40;4.57;;;11.40;62.10;;;;;;5092532;28;20020;-73
2021/03/16 12:15:19;;;;;;;13.27;2.53;;;11.30;62.80;;;;;;5091243;28;20402;-73
2021/03/16 12:17:47;;;;;;;9.70;2.40;;;11.20;62.50;;;;;;5092220;28;20058;-73
2021/03/16 12:20:13;;;;;;;13.57;2.20;;;11.20;66.30;;;;;;5091979;28;20073;-73
2021/03/16 12:22:38;;;;;;;10.35;2.03;;;11.30;65.30;;;;;;5098985;27;20040;-73
2021/03/16 12:25:06;;;;;;;9.15;2.35;;;11.40;65.60;;;;;;5092442;28;20054;-73
2021/03/16 12:27:31;;;;;;;17.38;2.30;;;11.40;63.40;;;;;;5112093;28;20581;-73
2021/03/16 12:29:57;;;;;;;11.55;1.73;;;11.50;62.20;;;;;;5111137;28;20050;-74
2021/03/16 12:32:23;;;;;;;11.50;2.00;;;11.50;61.60;;;;;;5090533;28;20855;-74
2021/03/16 12:34:50;;;;;;;9.10;1.55;;;11.60;60.90;;;;;;5097705;28;20134;-73
2021/03/16 12:37:17;;;;;;;8.90;1.80;;;11.70;58.80;;;;;;5112578;28;20016;-73
2021/03/16 12:39:42;;;;;;;8.35;1.50;;;11.80;58.30;;;;;;5109595;28;20083;-73
2021/03/16 12:42:08;;;;;;;10.77;2.25;;;11.80;58.00;;;;;;5108273;28;20023;-73
2021/03/16 12:44:34;;;;;;;11.85;2.50;;;11.90;59.10;;;;;;5095523;28;20090;-73
2021/03/16 12:47:01;;;;;;;12.55;2.72;;;11.80;61.00;;;;;;5111982;28;20490;-73
2021/03/16 12:49:27;;;;;;;10.70;2.00;;;11.80;58.20;;;;;;5099145;28;20016;-73